Time;durP1;ratioP1;P1;durP2;ratioP2;P2;SDS_P1;SDS_P2;PMS_P1;PMS_P2;Temp;Humidity;BMP_temperature;BMP_pressure;BME280_temperature;BME280_humidity;BME280_pressure;Samples;Min_cycle;Max_cycle;Signal;HPM_P1;HPM_P2
2023/10/16 00:00:45;;;;;;;0.40;0.10;;;6.80;99.90;;;;;;4979888;28;20144;-70
2023/10/16 00:03:15;;;;;;;0.75;0.05;;;6.80;99.90;;;;;;4959784;28;20058;-69
2023/10/16 00:05:49;;;;;;;1.13;0.10;;;6.80;99.90;;;;;;4974179;28;20050;-67
2023/10/16 00:08:18;;;;;;;0.20;0.10;;;6.90;99.90;;;;;;4992560;28;20061;-69
2023/10/16 00:10:57;;;;;;;3.92;0.10;;;6.90;99.90;;;;;;4950438;28;20076;-69
2023/10/16 00:13:26;;;;;;;0.98;0.05;;;6.80;99.90;;;;;;4983436;28;20149;-69
2023/10/16 00:15:57;;;;;;;0.32;0.10;;;6.90;99.90;;;;;;4974235;28;20073;-68
2023/10/16 00:18:24;;;;;;;0.28;0.20;;;6.80;99.90;;;;;;4979010;28;20176;-68
2023/10/16 00:20:51;;;;;;;0.00;0.00;;;6.70;99.90;;;;;;4982677;28;20053;-68
2023/10/16 00:23:17;;;;;;;0.03;0.00;;;6.70;99.90;;;;;;4972237;28;20506;-68
2023/10/16 00:25:50;;;;;;;0.35;0.05;;;6.70;99.90;;;;;;4999101;28;20049;-68
2023/10/16 00:28:22;;;;;;;0.88;0.10;;;6.60;99.90;;;;;;4993313;28;20057;-68
2023/10/16 00:30:49;;;;;;;0.13;0.03;;;6.60;99.90;;;;;;4981016;28;20034;-69
2023/10/16 00:33:15;;;;;;;1.35;0.10;;;6.50;99.90;;;;;;4981100;28;20388;-69
2023/10/16 00:36:00;;;;;;;0.80;0.10;;;6.50;99.90;;;;;;4976521;28;20389;-68
2023/10/16 00:38:26;;;;;;;1.00;0.32;;;6.50;99.90;;;;;;4978635;28;20205;-68
2023/10/16 00:43:36;;;;;;;1.13;0.00;;;6.50;99.90;;;;;;4995044;28;20057;-68
2023/10/16 00:46:11;;;;;;;0.00;0.00;;;6.60;99.90;;;;;;4991014;28;20042;-69
2023/10/16 00:48:39;;;;;;;0.20;0.10;;;6.50;99.90;;;;;;4971075;28;20121;-68
2023/10/16 00:51:08;;;;;;;0.32;0.00;;;6.60;99.90;;;;;;4981968;28;20492;-69
2023/10/16 00:53:38;;;;;;;0.00;0.00;;;6.70;99.90;;;;;;4973900;28;20558;-69
2023/10/16 00:56:08;;;;;;;1.98;0.10;;;6.70;99.90;;;;;;4992957;28;20081;-68
2023/10/16 00:58:37;;;;;;;1.35;0.00;;;6.70;99.90;;;;;;4967046;28;20080;-69
2023/10/16 01:01:08;;;;;;;0.00;0.00;;;6.80;99.90;;;;;;4973826;28;20463;-68
2023/10/16 01:03:36;;;;;;;3.10;0.00;;;6.80;99.90;;;;;;4991259;28;20062;-68
2023/10/16 01:06:03;;;;;;;0.10;0.00;;;6.80;99.90;;;;;;4995979;28;20053;-68
2023/10/16 01:08:29;;;;;;;3.63;0.10;;;6.80;99.90;;;;;;4978521;28;20045;-69
2023/10/16 01:10:57;;;;;;;0.30;0.13;;;6.80;99.90;;;;;;4976204;28;20673;-69
2023/10/16 01:13:26;;;;;;;0.00;0.00;;;6.90;99.90;;;;;;4972216;28;20046;-68
2023/10/16 01:15:53;;;;;;;0.30;0.00;;;6.90;99.90;;;;;;4967992;28;20120;-69
2023/10/16 01:18:19;;;;;;;0.52;0.20;;;6.90;99.90;;;;;;4977232;28;20034;-68
2023/10/16 01:20:50;;;;;;;0.75;0.22;;;7.00;99.90;;;;;;4979515;28;20039;-68
2023/10/16 01:23:19;;;;;;;0.35;0.22;;;7.00;99.90;;;;;;4978011;28;20042;-68
2023/10/16 01:25:46;;;;;;;0.00;0.00;;;7.00;99.90;;;;;;4965089;28;20056;-68
2023/10/16 01:28:15;;;;;;;1.75;0.10;;;7.10;99.90;;;;;;4973905;28;20086;-68
2023/10/16 01:30:42;;;;;;;0.00;0.00;;;7.10;99.90;;;;;;4959021;28;20435;-69
2023/10/16 01:33:08;;;;;;;0.22;0.03;;;7.10;99.90;;;;;;4980732;28;20038;-69
2023/10/16 01:35:36;;;;;;;0.00;0.00;;;7.20;99.90;;;;;;4983838;28;20053;-69
2023/10/16 01:38:14;;;;;;;0.30;0.00;;;7.20;99.90;;;;;;4982069;28;20038;-69
2023/10/16 01:43:45;;;;;;;0.43;0.08;;;7.30;99.90;;;;;;4932471;28;20046;-67
2023/10/16 01:46:12;;;;;;;0.43;0.00;;;7.30;99.90;;;;;;4983208;28;20054;-66
2023/10/16 01:48:44;;;;;;;0.20;0.00;;;7.40;99.90;;;;;;4999677;28;20185;-67
2023/10/16 01:51:20;;;;;;;0.28;0.10;;;7.40;99.90;;;;;;4976683;28;20137;-67
2023/10/16 01:53:52;;;;;;;1.30;0.10;;;7.40;99.90;;;;;;4998917;28;20517;-67
2023/10/16 01:56:21;;;;;;;0.00;0.00;;;7.40;99.90;;;;;;4998661;28;20538;-66
2023/10/16 01:58:49;;;;;;;0.35;0.10;;;7.40;99.90;;;;;;4989520;28;20490;-66
2023/10/16 02:01:19;;;;;;;0.70;0.38;;;7.50;99.90;;;;;;4997736;28;20041;-66
2023/10/16 02:03:48;;;;;;;0.30;0.00;;;7.50;99.90;;;;;;4984505;28;20082;-66
2023/10/16 02:06:17;;;;;;;1.52;0.10;;;7.40;99.90;;;;;;4997593;28;20490;-66
2023/10/16 02:08:45;;;;;;;0.20;0.08;;;7.40;99.90;;;;;;5006060;28;20038;-66
2023/10/16 02:11:11;;;;;;;0.00;0.00;;;7.40;99.90;;;;;;4996715;28;20035;-66
2023/10/16 02:13:40;;;;;;;0.25;0.10;;;7.40;99.90;;;;;;4984057;28;20084;-65
2023/10/16 02:16:10;;;;;;;0.00;0.00;;;7.40;99.90;;;;;;4998943;28;20038;-65
2023/10/16 02:18:41;;;;;;;0.38;0.13;;;7.40;99.90;;;;;;4972555;28;20045;-66
2023/10/16 02:21:11;;;;;;;0.57;0.25;;;7.40;99.90;;;;;;4979122;28;20506;-65
2023/10/16 02:23:38;;;;;;;0.20;0.00;;;7.30;99.90;;;;;;4999136;28;20050;-65
2023/10/16 02:26:08;;;;;;;2.45;0.05;;;7.30;99.90;;;;;;4982778;28;20034;-65
2023/10/16 02:28:34;;;;;;;0.08;0.00;;;7.20;99.90;;;;;;4997624;28;20468;-65
2023/10/16 02:31:19;;;;;;;0.20;0.13;;;7.20;99.90;;;;;;4996580;28;20088;-66
2023/10/16 02:33:50;;;;;;;0.00;0.00;;;7.20;99.90;;;;;;5001710;28;20041;-65
2023/10/16 02:36:18;;;;;;;0.45;0.00;;;7.20;99.90;;;;;;4962392;28;20427;-66
2023/10/16 02:38:44;;;;;;;0.77;0.30;;;7.20;99.90;;;;;;4992711;28;20136;-66
2023/10/16 02:41:10;;;;;;;0.15;0.10;;;7.20;99.90;;;;;;4998344;28;20430;-66
2023/10/16 02:43:37;;;;;;;0.10;0.10;;;7.20;99.90;;;;;;4999126;28;20038;-66
2023/10/16 02:46:04;;;;;;;0.15;0.10;;;7.20;99.90;;;;;;4969686;28;20439;-66
2023/10/16 02:48:30;;;;;;;0.80;0.10;;;7.20;99.90;;;;;;4994056;28;20070;-66
2023/10/16 02:50:59;;;;;;;0.30;0.17;;;7.20;99.90;;;;;;4998937;28;20169;-66
2023/10/16 02:53:29;;;;;;;3.40;0.30;;;7.20;99.90;;;;;;4998356;28;20101;-66
2023/10/16 02:56:04;;;;;;;0.20;0.10;;;7.10;99.90;;;;;;4998685;28;20046;-66
2023/10/16 02:58:30;;;;;;;0.70;0.40;;;7.00;99.90;;;;;;4993425;28;20109;-66
2023/10/16 03:00:58;;;;;;;0.63;0.32;;;6.90;99.90;;;;;;4995020;28;20482;-66
2023/10/16 03:03:26;;;;;;;0.80;0.35;;;6.90;99.90;;;;;;4996911;28;20038;-66
2023/10/16 03:05:55;;;;;;;0.55;0.20;;;6.80;99.90;;;;;;4991550;28;20072;-65
2023/10/16 03:08:29;;;;;;;1.10;0.20;;;6.80;99.90;;;;;;4975184;28;20344;-66
2023/10/16 03:11:01;;;;;;;0.15;0.08;;;6.70;99.90;;;;;;4999728;28;20200;-66
2023/10/16 03:13:29;;;;;;;;;;;6.70;99.90;;;;;;4998443;28;20115;-66
2023/10/16 03:16:04;;;;;;;0.35;0.15;;;6.60;99.90;;;;;;4983489;28;20366;-65
2023/10/16 03:18:30;;;;;;;0.17;0.15;;;6.60;99.90;;;;;;4995904;28;20034;-66
2023/10/16 03:21:21;;;;;;;0.35;0.20;;;6.50;99.90;;;;;;4998960;28;20125;-66
2023/10/16 03:23:47;;;;;;;0.40;0.17;;;6.50;99.90;;;;;;4978007;28;20462;-66
2023/10/16 03:26:25;;;;;;;0.40;0.30;;;6.50;99.90;;;;;;4990605;28;20038;-66
2023/10/16 03:28:54;;;;;;;0.22;0.20;;;6.50;99.90;;;;;;4995374;28;20092;-66
2023/10/16 03:31:24;;;;;;;1.27;0.40;;;6.50;99.90;;;;;;4998781;28;20128;-66
2023/10/16 03:33:50;;;;;;;0.47;0.28;;;6.60;99.90;;;;;;4992052;28;20033;-66
2023/10/16 03:36:17;;;;;;;0.43;0.17;;;6.60;99.90;;;;;;5003234;28;20097;-66
2023/10/16 03:38:43;;;;;;;0.20;0.10;;;6.60;99.90;;;;;;4982394;28;20494;-66
2023/10/16 03:43:58;;;;;;;0.30;0.10;;;6.90;99.90;;;;;;4992279;28;20129;-66
2023/10/16 03:46:28;;;;;;;3.20;0.20;;;6.90;99.90;;;;;;4977383;28;20418;-66
2023/10/16 03:48:57;;;;;;;0.17;0.00;;;6.90;99.90;;;;;;5000149;28;20050;-66
2023/10/16 03:51:24;;;;;;;2.25;0.45;;;7.00;99.90;;;;;;4979981;28;20053;-66
2023/10/16 03:53:52;;;;;;;0.65;0.20;;;7.00;99.90;;;;;;4992637;28;20062;-67
2023/10/16 03:56:18;;;;;;;0.77;0.22;;;7.10;99.90;;;;;;4996245;28;20496;-67
2023/10/16 03:58:44;;;;;;;0.90;0.30;;;7.10;99.90;;;;;;4999162;28;20574;-66
2023/10/16 04:01:14;;;;;;;0.25;0.10;;;7.10;99.90;;;;;;4998751;28;20069;-66
2023/10/16 04:03:56;;;;;;;0.95;0.45;;;7.10;99.90;;;;;;5002659;28;20129;-67
2023/10/16 04:06:23;;;;;;;0.22;0.10;;;7.20;99.90;;;;;;4982122;28;20357;-67
2023/10/16 04:08:50;;;;;;;0.40;0.30;;;7.20;99.90;;;;;;4993142;28;20745;-66
2023/10/16 04:11:17;;;;;;;0.25;0.10;;;7.30;99.90;;;;;;4975745;28;20060;-66
2023/10/16 04:14:11;;;;;;;0.22;0.10;;;7.30;99.90;;;;;;4991887;28;20524;-66
2023/10/16 04:16:48;;;;;;;0.17;0.10;;;7.30;99.90;;;;;;4992028;28;20038;-66
2023/10/16 04:21:51;;;;;;;1.08;0.30;;;7.50;99.90;;;;;;4989560;28;20490;-66
2023/10/16 04:25:02;;;;;;;6.82;0.68;;;7.50;99.90;;;;;;4997578;28;20395;-67
2023/10/16 04:38:27;;;;;;;1.52;0.20;;;7.70;99.90;;;;;;4963166;28;20100;-66
2023/10/16 04:44:22;;;;;;;0.30;0.25;;;7.60;99.90;;;;;;4993258;28;20062;-66
2023/10/16 04:49:36;;;;;;;0.50;0.20;;;7.70;99.90;;;;;;4979002;28;20125;-67
2023/10/16 04:52:06;;;;;;;0.68;0.20;;;7.70;99.90;;;;;;4993841;28;20462;-66
2023/10/16 05:00:12;;;;;;;0.65;0.15;;;7.80;99.90;;;;;;4996901;28;20042;-66
2023/10/16 05:02:41;;;;;;;0.22;0.20;;;7.80;99.90;;;;;;4999926;28;20379;-66
2023/10/16 05:08:13;;;;;;;;;;;7.80;99.90;;;;;;4992272;28;20450;-66
2023/10/16 05:13:55;;;;;;;0.00;0.00;;;7.70;99.90;;;;;;4983876;28;20057;-66
2023/10/16 05:17:06;;;;;;;0.00;0.00;;;7.70;99.90;;;;;;4982734;28;20304;-66
2023/10/16 05:19:03;;;;;;;0.40;0.10;;;7.60;99.90;;;;;;4983406;28;20575;-67
2023/10/16 05:22:02;;;;;;;0.30;0.10;;;7.60;99.90;;;;;;4999347;28;20121;-67
2023/10/16 06:14:10;;;;;;;0.35;0.20;;;7.80;99.90;;;;;;4992870;28;20088;-67
2023/10/16 06:16:38;;;;;;;1.52;0.20;;;7.80;99.90;;;;;;4974273;28;20042;-66
2023/10/16 06:19:14;;;;;;;0.43;0.08;;;7.90;99.90;;;;;;5003471;28;20038;-67
2023/10/16 06:21:45;;;;;;;0.47;0.20;;;7.90;99.90;;;;;;5001035;28;20053;-67
2023/10/16 06:24:35;;;;;;;1.45;0.25;;;7.90;99.90;;;;;;4962423;28;20053;-67
2023/10/16 06:27:09;;;;;;;0.63;0.22;;;7.90;99.90;;;;;;4992048;28;20469;-66
2023/10/16 06:29:40;;;;;;;0.47;0.10;;;7.90;99.90;;;;;;4997455;28;20523;-67
2023/10/16 06:32:07;;;;;;;0.57;0.22;;;7.90;99.90;;;;;;4980268;28;20049;-67
2023/10/16 06:34:36;;;;;;;0.00;0.00;;;8.00;99.90;;;;;;4993752;28;20038;-67
2023/10/16 06:37:06;;;;;;;1.38;0.10;;;8.10;99.90;;;;;;4992933;28;20041;-67
2023/10/16 06:39:35;;;;;;;0.30;0.17;;;8.20;99.90;;;;;;4996356;28;20045;-67
2023/10/16 06:42:04;;;;;;;0.00;0.00;;;8.20;99.90;;;;;;4997281;28;20050;-67
2023/10/16 06:44:34;;;;;;;1.23;0.32;;;8.20;99.90;;;;;;4989996;28;20365;-66
2023/10/16 06:47:00;;;;;;;0.20;0.20;;;8.30;99.90;;;;;;4979957;28;20050;-67
2023/10/16 06:49:36;;;;;;;0.30;0.10;;;8.30;99.90;;;;;;4995697;28;20045;-66
2023/10/16 06:52:06;;;;;;;0.10;0.03;;;8.40;99.90;;;;;;4995428;28;20363;-67
2023/10/16 06:54:39;;;;;;;0.20;0.10;;;8.50;99.90;;;;;;4985145;28;20475;-68
2023/10/16 06:57:13;;;;;;;0.80;0.10;;;8.50;99.90;;;;;;4993753;28;20053;-66
2023/10/16 06:59:40;;;;;;;0.68;0.10;;;8.50;99.90;;;;;;4995401;28;20042;-66
2023/10/16 07:02:15;;;;;;;0.85;0.30;;;8.60;99.90;;;;;;4992766;28;20030;-67
2023/10/16 07:04:44;;;;;;;0.80;0.03;;;8.60;99.90;;;;;;4999808;28;20306;-66
2023/10/16 07:07:17;;;;;;;0.20;0.10;;;8.60;99.90;;;;;;4995490;28;20040;-66
2023/10/16 07:09:49;;;;;;;0.17;0.10;;;8.70;99.90;;;;;;4982606;28;20129;-67
2023/10/16 07:12:19;;;;;;;0.03;0.03;;;8.80;99.90;;;;;;4997965;28;20046;-66
2023/10/16 07:14:57;;;;;;;0.45;0.00;;;8.80;99.90;;;;;;4989964;28;20519;-66
2023/10/16 07:17:33;;;;;;;0.45;0.30;;;8.80;99.90;;;;;;4996837;28;20038;-67
2023/10/16 07:19:59;;;;;;;0.47;0.20;;;8.90;99.90;;;;;;4981675;28;20407;-66
2023/10/16 07:22:32;;;;;;;2.38;0.20;;;8.90;99.90;;;;;;4991901;28;20037;-67
2023/10/16 07:25:22;;;;;;;0.03;0.00;;;9.00;99.90;;;;;;4999113;28;20034;-66
2023/10/16 07:27:47;;;;;;;4.05;0.30;;;9.10;99.90;;;;;;4998826;28;20467;-66
2023/10/16 07:30:23;;;;;;;0.13;0.10;;;9.20;99.90;;;;;;5001479;28;20117;-65
2023/10/16 07:32:49;;;;;;;2.08;0.20;;;9.30;99.90;;;;;;4991270;28;20050;-65
2023/10/16 07:35:18;;;;;;;0.30;0.20;;;9.50;99.90;;;;;;4998887;28;20034;-65
2023/10/16 07:37:54;;;;;;;2.45;0.00;;;9.90;99.90;;;;;;4980867;28;20093;-65
2023/10/16 07:40:21;;;;;;;1.20;0.10;;;10.00;99.90;;;;;;4998124;28;20073;-65
2023/10/16 07:42:47;;;;;;;0.10;0.10;;;10.30;99.90;;;;;;4993479;28;20053;-65
2023/10/16 07:45:13;;;;;;;3.35;0.47;;;10.30;99.90;;;;;;4995202;28;20042;-65
2023/10/16 07:47:39;;;;;;;0.90;0.10;;;10.40;99.90;;;;;;4990827;28;20120;-65
2023/10/16 07:50:07;;;;;;;0.60;0.20;;;10.50;99.90;;;;;;4992585;28;20074;-65
2023/10/16 07:52:34;;;;;;;0.30;0.15;;;10.50;99.90;;;;;;4996409;28;20117;-65
2023/10/16 07:55:02;;;;;;;0.00;0.00;;;10.50;99.90;;;;;;4995573;28;20042;-65
2023/10/16 07:57:28;;;;;;;3.83;0.32;;;10.50;99.90;;;;;;5001099;28;20042;-65
2023/10/16 07:59:54;;;;;;;0.38;0.15;;;10.40;99.90;;;;;;4992780;28;20125;-66
2023/10/16 08:02:23;;;;;;;0.10;0.00;;;10.40;99.90;;;;;;4973673;28;20242;-66
2023/10/16 08:04:51;;;;;;;3.90;0.30;;;10.30;99.90;;;;;;4996362;28;20037;-66
2023/10/16 08:07:18;;;;;;;0.20;0.00;;;10.30;99.90;;;;;;4982539;28;20093;-66
2023/10/16 08:10:28;;;;;;;0.77;0.10;;;10.30;99.90;;;;;;4992065;28;20101;-67
2023/10/16 08:13:11;;;;;;;0.03;0.00;;;10.40;99.90;;;;;;4976186;28;20093;-66
2023/10/16 08:15:57;;;;;;;0.10;0.10;;;10.30;99.90;;;;;;4998336;28;20042;-67
2023/10/16 08:18:34;;;;;;;0.82;0.10;;;10.40;99.90;;;;;;4983867;28;20057;-66
2023/10/16 08:21:08;;;;;;;1.30;0.10;;;10.50;99.90;;;;;;4991191;28;20050;-65
2023/10/16 08:23:38;;;;;;;0.00;0.00;;;10.70;99.90;;;;;;4988921;28;20394;-66
2023/10/16 08:26:28;;;;;;;0.47;0.08;;;10.80;99.90;;;;;;4990950;28;20049;-66
2023/10/16 08:29:11;;;;;;;0.10;0.10;;;10.90;99.90;;;;;;4992389;28;20069;-66
2023/10/16 08:31:41;;;;;;;0.73;0.15;;;11.10;99.90;;;;;;4991175;28;20069;-66
2023/10/16 08:34:09;;;;;;;0.08;0.03;;;11.40;99.90;;;;;;4988608;28;20420;-66
2023/10/16 08:36:44;;;;;;;0.25;0.10;;;11.70;99.90;;;;;;4992856;28;20480;-65
2023/10/16 08:39:47;;;;;;;0.65;0.10;;;12.10;99.90;;;;;;4990179;28;20034;-65
2023/10/16 08:42:18;;;;;;;0.20;0.10;;;12.30;99.90;;;;;;4994608;28;20073;-66
2023/10/16 08:47:42;;;;;;;0.38;0.10;;;13.50;99.90;;;;;;4999254;28;20046;-66
2023/10/16 08:50:17;;;;;;;0.13;0.10;;;14.20;99.90;;;;;;4997289;28;20046;-66
2023/10/16 08:53:05;;;;;;;0.10;0.00;;;14.60;99.90;;;;;;4999059;28;20046;-66
2023/10/16 08:55:38;;;;;;;0.38;0.10;;;14.80;99.90;;;;;;4981838;28;20503;-66
2023/10/16 08:58:04;;;;;;;2.28;0.17;;;15.00;99.90;;;;;;4993895;28;20048;-66
2023/10/16 09:00:42;;;;;;;0.00;0.00;;;15.20;99.90;;;;;;4993876;28;20489;-66
2023/10/16 09:03:20;;;;;;;2.45;0.20;;;14.90;99.90;;;;;;5001627;28;20053;-66
2023/10/16 09:05:46;;;;;;;0.93;0.10;;;14.70;99.90;;;;;;4999838;28;20437;-66
2023/10/16 09:08:15;;;;;;;0.10;0.00;;;14.30;99.90;;;;;;5002157;28;20097;-66
2023/10/16 09:10:41;;;;;;;0.15;0.03;;;13.80;99.90;;;;;;4999167;28;20077;-66
2023/10/16 09:13:17;;;;;;;0.13;0.00;;;13.30;99.90;;;;;;5002488;28;20057;-66
2023/10/16 09:15:45;;;;;;;0.40;0.05;;;12.90;99.90;;;;;;4999523;28;20046;-66
2023/10/16 09:18:17;;;;;;;0.30;0.20;;;12.60;99.90;;;;;;4979644;28;20101;-66
2023/10/16 09:20:43;;;;;;;0.47;0.10;;;12.40;99.90;;;;;;4968637;28;20069;-66
2023/10/16 09:23:21;;;;;;;3.00;0.30;;;12.20;99.90;;;;;;4997957;28;20125;-66
2023/10/16 09:25:47;;;;;;;0.22;0.10;;;12.00;99.90;;;;;;4975187;28;20081;-66
2023/10/16 09:28:22;;;;;;;0.20;0.00;;;12.00;99.90;;;;;;4977913;28;20039;-66
2023/10/16 09:30:49;;;;;;;3.53;0.30;;;11.90;99.90;;;;;;5000504;28;20096;-66
2023/10/16 09:33:15;;;;;;;0.90;0.63;;;11.90;99.90;;;;;;4980417;28;20038;-66
2023/10/16 09:35:44;;;;;;;0.20;0.10;;;11.90;99.90;;;;;;4994661;28;20121;-66
2023/10/16 09:38:18;;;;;;;0.73;0.10;;;11.80;99.90;;;;;;4993130;28;20134;-67
2023/10/16 09:41:37;;;;;;;0.13;0.10;;;11.80;99.90;;;;;;4986063;28;20041;-66
2023/10/16 09:49:14;;;;;;;0.38;0.20;;;12.00;99.90;;;;;;4999436;28;20532;-67
2023/10/16 09:51:46;;;;;;;1.40;0.10;;;12.20;99.90;;;;;;4956196;28;20046;-68
2023/10/16 09:54:13;;;;;;;0.93;0.17;;;12.20;99.90;;;;;;4999865;28;20514;-67
2023/10/16 09:56:44;;;;;;;0.00;0.00;;;12.40;99.90;;;;;;4991822;28;20089;-67
2023/10/16 09:59:33;;;;;;;0.43;0.10;;;12.60;99.90;;;;;;5003889;28;20042;-67
2023/10/16 10:02:08;;;;;;;0.22;0.00;;;13.00;99.90;;;;;;5000813;28;20034;-66
2023/10/16 10:04:44;;;;;;;0.08;0.00;;;13.80;99.90;;;;;;4976642;28;20057;-68
2023/10/16 10:07:19;;;;;;;0.17;0.00;;;14.60;99.90;;;;;;4998077;28;20038;-67
2023/10/16 10:09:47;;;;;;;0.10;0.00;;;15.00;99.90;;;;;;5001488;28;20045;-68
2023/10/16 10:12:28;;;;;;;0.43;0.00;;;15.30;99.90;;;;;;4974783;28;20053;-68
2023/10/16 10:15:35;;;;;;;2.00;0.17;;;15.10;99.90;;;;;;4977667;28;20134;-67
2023/10/16 10:18:31;;;;;;;0.63;0.20;;;14.60;99.90;;;;;;4991578;28;20053;-67
2023/10/16 10:21:02;;;;;;;0.15;0.00;;;14.30;99.90;;;;;;4996424;28;20326;-67
2023/10/16 10:23:32;;;;;;;0.47;0.17;;;14.00;99.90;;;;;;4994773;28;20081;-67
2023/10/16 10:26:02;;;;;;;0.35;0.00;;;13.80;99.90;;;;;;4992612;28;20042;-67
2023/10/16 10:28:37;;;;;;;1.30;0.10;;;13.70;99.90;;;;;;5000704;28;20153;-67
2023/10/16 10:31:05;;;;;;;0.45;0.10;;;13.50;99.90;;;;;;4996872;28;20084;-67
2023/10/16 10:33:58;;;;;;;0.00;0.00;;;13.60;99.90;;;;;;4973235;28;20046;-67
2023/10/16 10:36:38;;;;;;;0.30;0.08;;;13.90;99.90;;;;;;4973976;28;20039;-67
2023/10/16 10:39:38;;;;;;;0.65;0.10;;;13.80;99.90;;;;;;4977289;28;20054;-67
2023/10/16 10:42:16;;;;;;;1.42;0.10;;;13.60;99.90;;;;;;4992883;28;20042;-67
2023/10/16 10:44:53;;;;;;;0.40;0.13;;;13.50;99.90;;;;;;4991213;28;20472;-67
2023/10/16 10:47:32;;;;;;;0.70;0.00;;;13.50;99.90;;;;;;4982585;28;20046;-67
2023/10/16 10:50:00;;;;;;;0.10;0.00;;;13.50;99.90;;;;;;5001757;28;20050;-68
2023/10/16 10:52:32;;;;;;;2.58;0.10;;;13.50;99.90;;;;;;4994918;28;20042;-68
2023/10/16 10:55:14;;;;;;;2.28;0.10;;;13.50;99.90;;;;;;4978511;28;20550;-68
2023/10/16 10:57:47;;;;;;;0.10;0.10;;;13.60;99.90;;;;;;4999212;28;20432;-68
2023/10/16 11:00:43;;;;;;;1.00;0.00;;;13.70;99.90;;;;;;4999477;28;20502;-68
2023/10/16 11:03:22;;;;;;;1.90;0.20;;;14.00;99.90;;;;;;4975977;28;20083;-68
2023/10/16 11:05:49;;;;;;;0.77;0.30;;;14.40;99.90;;;;;;5000351;28;20050;-68
2023/10/16 11:10:46;;;;;;;1.95;0.10;;;15.10;99.90;;;;;;4979827;28;20497;-68
2023/10/16 11:13:14;;;;;;;2.25;0.52;;;15.50;99.90;;;;;;4982238;28;20054;-68
2023/10/16 11:15:53;;;;;;;0.13;0.10;;;15.80;99.90;;;;;;4999893;28;20470;-69
2023/10/16 11:18:20;;;;;;;0.25;0.00;;;16.10;99.90;;;;;;4980874;28;20038;-68
2023/10/16 11:20:52;;;;;;;0.20;0.00;;;16.00;99.90;;;;;;4984413;28;20188;-68
2023/10/16 11:23:21;;;;;;;1.45;0.10;;;15.70;99.90;;;;;;4995021;28;20046;-69
2023/10/16 11:25:52;;;;;;;0.40;0.08;;;15.60;99.90;;;;;;5003376;28;20042;-69
2023/10/16 11:28:28;;;;;;;0.00;0.00;;;15.40;99.90;;;;;;4980771;28;20104;-69
2023/10/16 11:30:57;;;;;;;1.23;0.15;;;15.20;99.90;;;;;;4978143;28;20045;-69
2023/10/16 11:33:27;;;;;;;0.10;0.00;;;14.80;99.90;;;;;;4997679;28;20119;-69
2023/10/16 11:36:02;;;;;;;1.02;0.05;;;14.50;99.90;;;;;;4983504;28;20066;-68
2023/10/16 11:38:28;;;;;;;1.27;0.40;;;14.10;99.90;;;;;;4979148;28;20046;-68
2023/10/16 11:41:05;;;;;;;0.32;0.13;;;13.90;99.90;;;;;;4982533;28;20052;-68
2023/10/16 11:43:38;;;;;;;0.10;0.00;;;13.70;99.90;;;;;;4979803;28;20048;-69
2023/10/16 11:46:24;;;;;;;1.60;0.08;;;13.50;99.90;;;;;;4997965;28;20100;-70
2023/10/16 11:48:56;;;;;;;0.15;0.10;;;13.40;99.90;;;;;;4975274;28;20100;-69
2023/10/16 11:51:25;;;;;;;0.82;0.50;;;13.30;99.90;;;;;;4964206;28;20043;-69
2023/10/16 11:54:02;;;;;;;0.00;0.00;;;13.20;99.90;;;;;;4978842;28;20105;-69
2023/10/16 11:56:34;;;;;;;0.00;0.00;;;13.10;99.90;;;;;;4979090;28;20062;-69
2023/10/16 11:59:00;;;;;;;1.25;0.10;;;13.10;99.90;;;;;;4976751;28;20084;-69
2023/10/16 12:01:28;;;;;;;0.00;0.00;;;13.10;99.90;;;;;;4995698;28;20118;-69
2023/10/16 12:03:55;;;;;;;0.05;0.00;;;13.10;99.90;;;;;;4994966;28;20073;-69
2023/10/16 12:06:20;;;;;;;0.38;0.00;;;13.30;99.90;;;;;;4966198;28;20046;-69
2023/10/16 12:08:46;;;;;;;1.23;0.32;;;13.50;99.90;;;;;;4991923;28;20540;-70
2023/10/16 12:11:14;;;;;;;0.80;0.20;;;13.70;99.90;;;;;;4993312;28;20030;-69
2023/10/16 12:13:41;;;;;;;0.57;0.05;;;13.80;99.90;;;;;;4968467;28;20072;-69
2023/10/16 12:16:07;;;;;;;0.75;0.10;;;13.80;99.90;;;;;;4964666;28;20104;-69
2023/10/16 12:18:33;;;;;;;0.10;0.00;;;13.80;99.90;;;;;;4986611;28;20038;-70
2023/10/16 12:21:05;;;;;;;0.32;0.10;;;13.90;99.90;;;;;;4976256;28;20049;-69
2023/10/16 12:23:36;;;;;;;0.20;0.00;;;13.80;99.90;;;;;;4995065;28;20057;-70
2023/10/16 12:26:03;;;;;;;0.00;0.00;;;13.70;99.90;;;;;;4977284;28;20046;-71
2023/10/16 12:28:30;;;;;;;0.10;0.00;;;13.70;99.90;;;;;;4989683;28;20049;-69
2023/10/16 12:30:57;;;;;;;0.00;0.00;;;13.60;99.90;;;;;;4983240;28;20045;-70
2023/10/16 12:33:26;;;;;;;0.70;0.10;;;13.50;99.90;;;;;;4981552;28;20065;-70
2023/10/16 12:35:56;;;;;;;0.10;0.00;;;13.40;99.90;;;;;;4975140;28;20054;-71
2023/10/16 12:38:24;;;;;;;0.00;0.00;;;13.40;99.90;;;;;;4961985;28;20431;-70
2023/10/16 12:40:56;;;;;;;0.30;0.00;;;13.40;99.90;;;;;;4993431;28;20042;-70
2023/10/16 12:43:25;;;;;;;1.25;0.00;;;13.50;99.90;;;;;;4980536;28;20070;-69
2023/10/16 12:45:51;;;;;;;0.50;0.10;;;13.50;99.90;;;;;;4981045;28;20043;-69
2023/10/16 12:48:17;;;;;;;2.13;0.00;;;13.50;99.90;;;;;;4981407;28;20054;-69
2023/10/16 12:50:48;;;;;;;0.93;0.20;;;13.60;99.90;;;;;;4977984;28;20053;-69
2023/10/16 12:53:14;;;;;;;2.75;0.15;;;13.60;99.90;;;;;;4979713;28;20454;-70
2023/10/16 12:55:41;;;;;;;2.08;0.28;;;13.70;99.90;;;;;;4962641;28;20245;-70
2023/10/16 12:58:10;;;;;;;0.10;0.10;;;13.80;99.90;;;;;;4975655;28;20061;-69
2023/10/16 13:00:39;;;;;;;0.35;0.10;;;13.80;99.90;;;;;;4974214;28;20035;-70
2023/10/16 13:03:14;;;;;;;0.20;0.10;;;13.80;99.90;;;;;;4997548;28;20137;-70
2023/10/16 13:05:40;;;;;;;;;;;13.80;99.90;;;;;;4974446;28;20080;-70
2023/10/16 13:08:08;;;;;;;2.00;0.38;;;13.70;99.90;;;;;;4974857;28;19917;-70
2023/10/16 13:10:34;;;;;;;1.20;0.17;;;13.60;99.90;;;;;;4978834;28;20073;-70
2023/10/16 13:13:24;;;;;;;0.85;0.05;;;13.60;99.90;;;;;;4968328;28;20046;-69
2023/10/16 13:15:51;;;;;;;0.10;0.00;;;13.50;99.90;;;;;;4974525;28;20486;-70
2023/10/16 13:18:26;;;;;;;1.00;0.00;;;13.40;99.90;;;;;;4960080;28;20510;-70
2023/10/16 13:21:06;;;;;;;0.47;0.00;;;13.30;99.90;;;;;;4991718;28;20064;-70
2023/10/16 13:23:36;;;;;;;0.40;0.10;;;13.30;99.90;;;;;;4976279;28;20378;-69
2023/10/16 13:26:03;;;;;;;0.75;0.05;;;13.30;99.90;;;;;;4971438;28;20038;-69
2023/10/16 13:28:30;;;;;;;0.43;0.15;;;13.30;99.90;;;;;;5000513;28;20393;-70
2023/10/16 13:30:56;;;;;;;1.95;0.20;;;13.20;99.90;;;;;;4980046;28;20106;-69
2023/10/16 13:33:21;;;;;;;0.93;0.30;;;13.10;99.90;;;;;;4969003;28;20176;-71
2023/10/16 13:36:56;;;;;;;0.75;0.20;;;13.10;99.90;;;;;;4975037;28;20038;-71
2023/10/16 13:39:19;;;;;;;0.17;0.00;;;13.10;99.90;;;;;;4973391;28;20622;-70
2023/10/16 13:41:51;;;;;;;0.60;0.10;;;13.00;99.90;;;;;;4981933;28;20115;-71
2023/10/16 13:44:22;;;;;;;0.15;0.00;;;13.00;99.90;;;;;;4980279;28;20045;-69
2023/10/16 13:46:48;;;;;;;1.88;0.35;;;13.00;99.90;;;;;;4983151;28;20053;-70
2023/10/16 13:49:16;;;;;;;0.75;0.10;;;13.00;99.90;;;;;;4983119;28;20049;-70
2023/10/16 13:51:42;;;;;;;0.43;0.10;;;13.00;99.90;;;;;;4982891;28;20046;-71
2023/10/16 13:54:14;;;;;;;3.00;0.32;;;13.00;99.90;;;;;;4978262;28;20049;-71
2023/10/16 13:56:48;;;;;;;0.77;0.45;;;13.10;99.90;;;;;;4998702;28;20070;-71
2023/10/16 13:59:15;;;;;;;0.05;0.00;;;13.00;99.90;;;;;;4983556;28;20093;-71
2023/10/16 14:01:44;;;;;;;0.20;0.00;;;13.00;99.90;;;;;;4987809;28;20057;-72
2023/10/16 14:04:25;;;;;;;0.20;0.00;;;13.00;99.90;;;;;;4980108;28;20062;-71
2023/10/16 14:06:51;;;;;;;0.10;0.10;;;13.00;99.90;;;;;;4983643;28;20456;-71
2023/10/16 14:09:21;;;;;;;0.65;0.20;;;13.00;99.90;;;;;;4984189;28;20112;-71
2023/10/16 14:11:48;;;;;;;0.10;0.10;;;13.00;99.90;;;;;;4968451;28;20498;-72
2023/10/16 14:14:19;;;;;;;1.65;0.30;;;12.90;99.90;;;;;;4978059;28;20057;-71
2023/10/16 14:16:46;;;;;;;1.08;0.10;;;12.90;99.90;;;;;;4981674;28;20080;-71
2023/10/16 14:19:13;;;;;;;0.75;0.13;;;12.90;99.90;;;;;;4976093;28;20042;-71
2023/10/16 14:21:40;;;;;;;0.20;0.00;;;12.90;99.90;;;;;;4975630;28;20386;-72
2023/10/16 14:24:17;;;;;;;0.55;0.00;;;12.90;99.90;;;;;;4981252;28;20042;-71
2023/10/16 14:26:44;;;;;;;0.10;0.00;;;13.00;99.90;;;;;;4986706;28;20640;-71
2023/10/16 14:29:10;;;;;;;0.25;0.08;;;13.00;99.90;;;;;;4981449;28;20052;-71
2023/10/16 14:31:36;;;;;;;0.63;0.35;;;13.00;99.90;;;;;;4981302;28;20041;-71
2023/10/16 14:34:05;;;;;;;0.38;0.15;;;13.00;99.90;;;;;;4980185;28;20122;-72
2023/10/16 14:36:31;;;;;;;0.00;0.00;;;12.90;99.90;;;;;;4965111;28;20038;-71
2023/10/16 14:38:59;;;;;;;3.10;0.22;;;12.90;99.90;;;;;;4985587;28;20041;-71
2023/10/16 14:41:25;;;;;;;0.73;0.20;;;12.90;99.90;;;;;;4976227;28;20042;-72
2023/10/16 14:44:27;;;;;;;0.40;0.10;;;12.90;99.90;;;;;;4984230;28;20516;-71
2023/10/16 14:46:56;;;;;;;0.28;0.17;;;12.90;99.90;;;;;;4934025;28;20419;-72
2023/10/16 14:49:25;;;;;;;0.95;0.20;;;12.80;99.90;;;;;;4977432;28;20039;-72
2023/10/16 14:51:51;;;;;;;0.20;0.03;;;12.80;99.90;;;;;;4965406;28;20498;-71
2023/10/16 14:54:21;;;;;;;0.50;0.08;;;12.80;99.90;;;;;;4975255;28;20055;-71
2023/10/16 14:56:49;;;;;;;130.23;69.05;;;12.70;99.90;;;;;;4981007;28;20046;-71